sensor_id;sensor_type;location;lat;lon;timestamp;pressure;altitude;pressure_sealevel;temperature;humidity
67015;BME280;1033;52.560;13.374;2023-12-04T00:00:18;101585.06;;;-3.75;100.00
67015;BME280;1033;52.560;13.374;2023-12-04T00:02:57;101576.66;;;-3.54;100.00
67015;BME280;1033;52.560;13.374;2023-12-04T00:05:44;101574.00;;;-3.68;100.00
67015;BME280;1033;52.560;13.374;2023-12-04T00:08:29;101578.63;;;-3.43;100.00
67015;BME280;1033;52.560;13.374;2023-12-04T00:11:07;101575.81;;;-3.54;100.00
67015;BME280;1033;52.560;13.374;2023-12-04T00:13:52;101570.78;;;-3.44;100.00
67015;BME280;1033;52.560;13.374;2023-12-04T00:16:38;101575.59;;;-3.51;100.00
67015;BME280;1033;52.560;13.374;2023-12-04T00:19:24;101573.16;;;-3.54;100.00
67015;BME280;1033;52.560;13.374;2023-12-04T00:22:06;101564.56;;;-3.72;100.00
67015;BME280;1033;52.560;13.374;2023-12-04T00:24:47;101559.38;;;-3.73;100.00
67015;BME280;1033;52.560;13.374;2023-12-04T00:27:30;101569.84;;;-3.58;100.00
67015;BME280;1033;52.560;13.374;2023-12-04T00:30:06;101570.31;;;-3.51;100.00
67015;BME280;1033;52.560;13.374;2023-12-04T00:32:45;101577.88;;;-3.59;100.00
67015;BME280;1033;52.560;13.374;2023-12-04T00:35:21;101567.69;;;-3.65;100.00
67015;BME280;1033;52.560;13.374;2023-12-04T00:38:03;101566.34;;;-3.44;100.00
67015;BME280;1033;52.560;13.374;2023-12-04T00:40:42;101568.16;;;-3.44;100.00
67015;BME280;1033;52.560;13.374;2023-12-04T00:43:22;101577.69;;;-3.56;100.00
67015;BME280;1033;52.560;13.374;2023-12-04T00:46:01;101589.03;;;-3.40;100.00
67015;BME280;1033;52.560;13.374;2023-12-04T00:48:39;101588.06;;;-3.53;100.00
67015;BME280;1033;52.560;13.374;2023-12-04T00:51:24;101583.34;;;-3.62;100.00
67015;BME280;1033;52.560;13.374;2023-12-04T00:54:06;101580.97;;;-3.38;100.00
67015;BME280;1033;52.560;13.374;2023-12-04T00:56:50;101587.50;;;-3.58;100.00
67015;BME280;1033;52.560;13.374;2023-12-04T00:59:30;101597.13;;;-3.43;100.00
67015;BME280;1033;52.560;13.374;2023-12-04T01:02:14;101595.56;;;-3.60;100.00
67015;BME280;1033;52.560;13.374;2023-12-04T01:04:57;101586.56;;;-3.57;100.00
67015;BME280;1033;52.560;13.374;2023-12-04T01:07:36;101582.78;;;-3.53;100.00
67015;BME280;1033;52.560;13.374;2023-12-04T01:10:14;101578.63;;;-3.43;100.00
67015;BME280;1033;52.560;13.374;2023-12-04T01:13:10;101581.84;;;-3.52;100.00
67015;BME280;1033;52.560;13.374;2023-12-04T01:15:46;101571.81;;;-3.47;100.00
67015;BME280;1033;52.560;13.374;2023-12-04T01:18:22;101567.44;;;-3.34;100.00
67015;BME280;1033;52.560;13.374;2023-12-04T01:21:05;101581.38;;;-3.44;100.00
67015;BME280;1033;52.560;13.374;2023-12-04T01:23:44;101574.09;;;-3.55;100.00
67015;BME280;1033;52.560;13.374;2023-12-04T01:26:25;101571.75;;;-3.60;100.00
67015;BME280;1033;52.560;13.374;2023-12-04T01:29:11;101568.72;;;-3.54;100.00
67015;BME280;1033;52.560;13.374;2023-12-04T01:31:50;101562.97;;;-3.60;100.00
67015;BME280;1033;52.560;13.374;2023-12-04T01:34:27;101560.69;;;-3.66;100.00
67015;BME280;1033;52.560;13.374;2023-12-04T01:37:06;101561.81;;;-3.56;100.00
67015;BME280;1033;52.560;13.374;2023-12-04T01:39:45;101559.75;;;-3.65;100.00
67015;BME280;1033;52.560;13.374;2023-12-04T01:42:23;101540.19;;;-3.77;100.00
67015;BME280;1033;52.560;13.374;2023-12-04T01:45:16;101545.75;;;-3.67;100.00
67015;BME280;1033;52.560;13.374;2023-12-04T01:48:07;101540.38;;;-3.66;100.00
67015;BME280;1033;52.560;13.374;2023-12-04T01:51:00;101542.16;;;-3.52;100.00
67015;BME280;1033;52.560;13.374;2023-12-04T01:53:47;101541.78;;;-3.46;100.00
67015;BME280;1033;52.560;13.374;2023-12-04T01:56:24;101535.97;;;-3.38;100.00
67015;BME280;1033;52.560;13.374;2023-12-04T01:59:08;101535.34;;;-3.42;100.00
67015;BME280;1033;52.560;13.374;2023-12-04T02:01:54;101529.88;;;-3.53;100.00
67015;BME280;1033;52.560;13.374;2023-12-04T02:04:32;101532.34;;;-3.50;100.00
67015;BME280;1033;52.560;13.374;2023-12-04T02:07:15;101536.69;;;-3.49;100.00
67015;BME280;1033;52.560;13.374;2023-12-04T02:09:55;101534.00;;;-3.35;100.00
67015;BME280;1033;52.560;13.374;2023-12-04T02:12:38;101527.59;;;-3.45;100.00
67015;BME280;1033;52.560;13.374;2023-12-04T02:15:16;101534.97;;;-3.50;100.00
67015;BME280;1033;52.560;13.374;2023-12-04T02:17:59;101529.47;;;-3.47;100.00
67015;BME280;1033;52.560;13.374;2023-12-04T02:20:35;101524.41;;;-3.50;100.00
67015;BME280;1033;52.560;13.374;2023-12-04T02:23:26;101521.84;;;-3.52;100.00
67015;BME280;1033;52.560;13.374;2023-12-04T02:26:12;101517.97;;;-3.60;100.00
67015;BME280;1033;52.560;13.374;2023-12-04T02:28:58;101525.16;;;-3.62;100.00
67015;BME280;1033;52.560;13.374;2023-12-04T02:32:02;101513.72;;;-3.63;100.00
67015;BME280;1033;52.560;13.374;2023-12-04T02:34:43;101498.69;;;-3.62;100.00
67015;BME280;1033;52.560;13.374;2023-12-04T02:37:22;101502.50;;;-3.66;100.00
67015;BME280;1033;52.560;13.374;2023-12-04T02:40:03;101502.75;;;-3.57;100.00
67015;BME280;1033;52.560;13.374;2023-12-04T02:42:46;101504.25;;;-3.53;100.00
67015;BME280;1033;52.560;13.374;2023-12-04T02:45:24;101501.69;;;-3.40;100.00
67015;BME280;1033;52.560;13.374;2023-12-04T02:48:07;101496.88;;;-3.47;100.00
67015;BME280;1033;52.560;13.374;2023-12-04T02:50:47;101486.97;;;-3.44;100.00
67015;BME280;1033;52.560;13.374;2023-12-04T02:58:12;101487.09;;;-3.60;100.00
67015;BME280;1033;52.560;13.374;2023-12-04T03:00:54;101477.75;;;-3.65;100.00
67015;BME280;1033;52.560;13.374;2023-12-04T03:03:39;101483.13;;;-3.67;100.00
67015;BME280;1033;52.560;13.374;2023-12-04T03:06:24;101478.59;;;-3.65;100.00
67015;BME280;1033;52.560;13.374;2023-12-04T03:09:04;101475.00;;;-3.64;100.00
67015;BME280;1033;52.560;13.374;2023-12-04T03:11:42;101478.78;;;-3.68;100.00
67015;BME280;1033;52.560;13.374;2023-12-04T03:14:26;101471.88;;;-3.56;100.00
67015;BME280;1033;52.560;13.374;2023-12-04T03:17:09;101470.91;;;-3.55;100.00
67015;BME280;1033;52.560;13.374;2023-12-04T03:19:45;101461.06;;;-3.53;100.00
67015;BME280;1033;52.560;13.374;2023-12-04T03:22:29;101459.53;;;-3.70;100.00
67015;BME280;1033;52.560;13.374;2023-12-04T03:25:16;101456.50;;;-3.64;100.00
67015;BME280;1033;52.560;13.374;2023-12-04T03:28:02;101466.59;;;-3.70;100.00
67015;BME280;1033;52.560;13.374;2023-12-04T03:30:47;101449.41;;;-3.63;100.00
67015;BME280;1033;52.560;13.374;2023-12-04T03:33:28;101457.78;;;-3.57;100.00
67015;BME280;1033;52.560;13.374;2023-12-04T03:36:09;101455.22;;;-3.44;100.00
67015;BME280;1033;52.560;13.374;2023-12-04T03:39:13;101445.19;;;-3.53;100.00
67015;BME280;1033;52.560;13.374;2023-12-04T03:42:01;101450.69;;;-3.56;100.00
67015;BME280;1033;52.560;13.374;2023-12-04T03:44:40;101463.53;;;-3.50;100.00
67015;BME280;1033;52.560;13.374;2023-12-04T03:47:23;101450.91;;;-3.59;100.00
67015;BME280;1033;52.560;13.374;2023-12-04T03:49:58;101448.13;;;-3.58;100.00
67015;BME280;1033;52.560;13.374;2023-12-04T03:52:40;101442.00;;;-3.58;100.00
67015;BME280;1033;52.560;13.374;2023-12-04T03:55:16;101441.25;;;-3.33;100.00
67015;BME280;1033;52.560;13.374;2023-12-04T03:57:56;101437.66;;;-3.32;100.00
67015;BME280;1033;52.560;13.374;2023-12-04T04:00:32;101429.56;;;-3.29;100.00
67015;BME280;1033;52.560;13.374;2023-12-04T04:03:19;101432.94;;;-3.27;100.00
67015;BME280;1033;52.560;13.374;2023-12-04T04:06:01;101419.69;;;-3.27;100.00
67015;BME280;1033;52.560;13.374;2023-12-04T04:08:41;101422.59;;;-3.18;100.00
67015;BME280;1033;52.560;13.374;2023-12-04T04:11:18;101418.59;;;-3.11;100.00
67015;BME280;1033;52.560;13.374;2023-12-04T04:14:01;101427.63;;;-3.00;100.00
67015;BME280;1033;52.560;13.374;2023-12-04T04:16:45;101426.56;;;-2.85;100.00
67015;BME280;1033;52.560;13.374;2023-12-04T04:19:24;101422.31;;;-3.00;100.00
67015;BME280;1033;52.560;13.374;2023-12-04T04:22:05;101417.34;;;-3.05;100.00
67015;BME280;1033;52.560;13.374;2023-12-04T04:24:47;101425.69;;;-3.11;100.00
67015;BME280;1033;52.560;13.374;2023-12-04T04:27:24;101420.09;;;-3.07;100.00
67015;BME280;1033;52.560;13.374;2023-12-04T04:30:02;101430.13;;;-3.12;100.00
67015;BME280;1033;52.560;13.374;2023-12-04T04:32:44;101435.41;;;-3.12;100.00
67015;BME280;1033;52.560;13.374;2023-12-04T04:35:22;101434.13;;;-3.19;100.00
67015;BME280;1033;52.560;13.374;2023-12-04T04:38:04;101429.44;;;-3.28;100.00
67015;BME280;1033;52.560;13.374;2023-12-04T04:40:43;101420.47;;;-3.13;100.00
67015;BME280;1033;52.560;13.374;2023-12-04T04:43:19;101429.25;;;-3.25;100.00
67015;BME280;1033;52.560;13.374;2023-12-04T04:45:58;101421.50;;;-3.28;100.00
67015;BME280;1033;52.560;13.374;2023-12-04T04:48:34;101422.25;;;-3.26;100.00
67015;BME280;1033;52.560;13.374;2023-12-04T04:51:25;101426.91;;;-3.29;100.00
67015;BME280;1033;52.560;13.374;2023-12-04T04:54:03;101416.25;;;-3.15;100.00
67015;BME280;1033;52.560;13.374;2023-12-04T04:56:54;101409.59;;;-3.08;100.00
67015;BME280;1033;52.560;13.374;2023-12-04T04:59:34;101415.63;;;-3.06;100.00
67015;BME280;1033;52.560;13.374;2023-12-04T05:02:19;101407.66;;;-3.19;100.00
67015;BME280;1033;52.560;13.374;2023-12-04T05:05:06;101410.66;;;-3.11;100.00
67015;BME280;1033;52.560;13.374;2023-12-04T05:07:59;101404.28;;;-3.21;100.00
67015;BME280;1033;52.560;13.374;2023-12-04T05:10:38;101411.44;;;-3.23;100.00
67015;BME280;1033;52.560;13.374;2023-12-04T05:16:52;101405.19;;;-3.34;100.00
67015;BME280;1033;52.560;13.374;2023-12-04T05:19:34;101401.31;;;-3.43;100.00
67015;BME280;1033;52.560;13.374;2023-12-04T05:22:18;101391.03;;;-3.47;100.00
67015;BME280;1033;52.560;13.374;2023-12-04T05:24:56;101385.09;;;-3.51;100.00
67015;BME280;1033;52.560;13.374;2023-12-04T05:27:32;101375.72;;;-3.42;100.00
67015;BME280;1033;52.560;13.374;2023-12-04T05:30:13;101377.63;;;-3.44;100.00
67015;BME280;1033;52.560;13.374;2023-12-04T05:33:03;101375.59;;;-3.54;100.00
67015;BME280;1033;52.560;13.374;2023-12-04T05:35:42;101376.28;;;-3.64;100.00
67015;BME280;1033;52.560;13.374;2023-12-04T05:38:22;101374.75;;;-3.54;100.00
67015;BME280;1033;52.560;13.374;2023-12-04T05:41:08;101368.63;;;-3.42;100.00
67015;BME280;1033;52.560;13.374;2023-12-04T05:43:43;101373.59;;;-3.50;100.00
67015;BME280;1033;52.560;13.374;2023-12-04T05:46:20;101366.97;;;-3.57;100.00
67015;BME280;1033;52.560;13.374;2023-12-04T05:48:59;101364.56;;;-3.47;100.00
67015;BME280;1033;52.560;13.374;2023-12-04T05:51:36;101362.06;;;-3.49;100.00
67015;BME280;1033;52.560;13.374;2023-12-04T05:54:21;101375.69;;;-3.55;100.00
67015;BME280;1033;52.560;13.374;2023-12-04T05:57:05;101369.44;;;-3.54;100.00
67015;BME280;1033;52.560;13.374;2023-12-04T05:59:42;101360.91;;;-3.45;100.00
67015;BME280;1033;52.560;13.374;2023-12-04T06:02:18;101356.09;;;-3.53;100.00
67015;BME280;1033;52.560;13.374;2023-12-04T06:05:00;101362.16;;;-3.38;100.00
67015;BME280;1033;52.560;13.374;2023-12-04T06:07:39;101359.66;;;-3.27;100.00
67015;BME280;1033;52.560;13.374;2023-12-04T06:10:21;101360.84;;;-3.18;100.00
67015;BME280;1033;52.560;13.374;2023-12-04T06:13:02;101364.66;;;-3.10;100.00
67015;BME280;1033;52.560;13.374;2023-12-04T06:15:41;101364.13;;;-3.15;100.00
67015;BME280;1033;52.560;13.374;2023-12-04T06:18:27;101364.06;;;-3.00;100.00
67015;BME280;1033;52.560;13.374;2023-12-04T06:21:15;101365.13;;;-3.03;100.00
67015;BME280;1033;52.560;13.374;2023-12-04T06:23:55;101360.66;;;-3.02;100.00
67015;BME280;1033;52.560;13.374;2023-12-04T06:26:33;101356.66;;;-2.95;100.00
67015;BME280;1033;52.560;13.374;2023-12-04T06:29:17;101360.34;;;-2.85;100.00
67015;BME280;1033;52.560;13.374;2023-12-04T06:31:58;101365.78;;;-2.74;100.00
67015;BME280;1033;52.560;13.374;2023-12-04T06:34:49;101362.81;;;-2.70;100.00
67015;BME280;1033;52.560;13.374;2023-12-04T06:37:42;101356.97;;;-2.75;100.00
67015;BME280;1033;52.560;13.374;2023-12-04T06:40:27;101352.84;;;-2.66;100.00
67015;BME280;1033;52.560;13.374;2023-12-04T06:43:09;101359.44;;;-2.72;100.00
67015;BME280;1033;52.560;13.374;2023-12-04T06:45:49;101355.38;;;-2.65;100.00
67015;BME280;1033;52.560;13.374;2023-12-04T06:48:38;101348.19;;;-2.63;100.00
67015;BME280;1033;52.560;13.374;2023-12-04T06:51:18;101347.13;;;-2.60;100.00
67015;BME280;1033;52.560;13.374;2023-12-04T06:54:01;101346.94;;;-2.57;100.00
67015;BME280;1033;52.560;13.374;2023-12-04T06:56:37;101341.16;;;-2.51;100.00
67015;BME280;1033;52.560;13.374;2023-12-04T06:59:14;101338.00;;;-2.56;100.00
67015;BME280;1033;52.560;13.374;2023-12-04T07:01:50;101336.63;;;-2.49;100.00
67015;BME280;1033;52.560;13.374;2023-12-04T07:04:28;101335.75;;;-2.37;100.00
67015;BME280;1033;52.560;13.374;2023-12-04T07:07:15;101332.69;;;-2.43;100.00
67015;BME280;1033;52.560;13.374;2023-12-04T07:09:56;101324.00;;;-2.33;100.00
67015;BME280;1033;52.560;13.374;2023-12-04T07:12:42;101320.16;;;-2.41;100.00
67015;BME280;1033;52.560;13.374;2023-12-04T07:15:20;101308.28;;;-2.36;100.00
67015;BME280;1033;52.560;13.374;2023-12-04T07:18:02;101313.59;;;-2.36;100.00
67015;BME280;1033;52.560;13.374;2023-12-04T07:20:47;101315.72;;;-2.28;100.00
67015;BME280;1033;52.560;13.374;2023-12-04T07:23:43;101312.50;;;-2.21;100.00
67015;BME280;1033;52.560;13.374;2023-12-04T07:26:24;101313.75;;;-2.13;100.00
67015;BME280;1033;52.560;13.374;2023-12-04T07:29:17;101321.72;;;-2.13;100.00
67015;BME280;1033;52.560;13.374;2023-12-04T07:32:02;101315.50;;;-2.01;100.00
67015;BME280;1033;52.560;13.374;2023-12-04T07:34:56;101317.28;;;-1.89;100.00
67015;BME280;1033;52.560;13.374;2023-12-04T07:37:37;101325.97;;;-1.87;100.00
67015;BME280;1033;52.560;13.374;2023-12-04T07:40:26;101322.88;;;-1.81;99.82
67015;BME280;1033;52.560;13.374;2023-12-04T07:43:06;101319.03;;;-1.77;98.34
67015;BME280;1033;52.560;13.374;2023-12-04T07:45:41;101317.72;;;-1.71;98.47
67015;BME280;1033;52.560;13.374;2023-12-04T07:48:34;101309.53;;;-1.68;98.88
67015;BME280;1033;52.560;13.374;2023-12-04T07:51:16;101304.88;;;-1.65;99.04
67015;BME280;1033;52.560;13.374;2023-12-04T07:54:15;101310.38;;;-1.68;98.95
67015;BME280;1033;52.560;13.374;2023-12-04T07:56:55;101312.25;;;-1.57;97.92
67015;BME280;1033;52.560;13.374;2023-12-04T07:59:32;101313.50;;;-1.50;97.16
67015;BME280;1033;52.560;13.374;2023-12-04T08:02:13;101318.22;;;-1.43;96.96
67015;BME280;1033;52.560;13.374;2023-12-04T08:04:55;101305.63;;;-1.52;96.54
67015;BME280;1033;52.560;13.374;2023-12-04T08:07:32;101311.06;;;-1.53;96.46
67015;BME280;1033;52.560;13.374;2023-12-04T08:10:08;101302.88;;;-1.50;96.12
67015;BME280;1033;52.560;13.374;2023-12-04T08:12:49;101305.34;;;-1.36;95.43
67015;BME280;1033;52.560;13.374;2023-12-04T08:15:24;101308.84;;;-1.36;95.78
67015;BME280;1033;52.560;13.374;2023-12-04T08:18:00;101312.88;;;-1.19;94.86
67015;BME280;1033;52.560;13.374;2023-12-04T08:20:35;101310.00;;;-1.05;94.94
67015;BME280;1033;52.560;13.374;2023-12-04T08:23:10;101306.50;;;-1.05;93.44
67015;BME280;1033;52.560;13.374;2023-12-04T08:25:42;101306.38;;;-1.04;93.36
67015;BME280;1033;52.560;13.374;2023-12-04T08:28:16;101301.66;;;-1.00;93.68
67015;BME280;1033;52.560;13.374;2023-12-04T08:30:49;101303.16;;;-0.63;92.39
67015;BME280;1033;52.560;13.374;2023-12-04T08:33:23;101310.50;;;-0.77;92.10
67015;BME280;1033;52.560;13.374;2023-12-04T08:35:58;101315.88;;;-0.44;91.75
67015;BME280;1033;52.560;13.374;2023-12-04T08:38:33;101299.28;;;-0.36;89.61
67015;BME280;1033;52.560;13.374;2023-12-04T08:41:06;101297.84;;;-0.40;89.29
67015;BME280;1033;52.560;13.374;2023-12-04T08:43:39;101303.88;;;-0.38;88.66
67015;BME280;1033;52.560;13.374;2023-12-04T08:46:13;101297.13;;;-0.43;86.84
67015;BME280;1033;52.560;13.374;2023-12-04T08:48:47;101298.44;;;-0.48;86.79
67015;BME280;1033;52.560;13.374;2023-12-04T08:51:20;101293.50;;;-0.64;87.37
67015;BME280;1033;52.560;13.374;2023-12-04T08:53:57;101298.31;;;-0.58;88.44
67015;BME280;1033;52.560;13.374;2023-12-04T08:56:45;101293.97;;;-0.48;87.83
67015;BME280;1033;52.560;13.374;2023-12-04T08:59:20;101292.53;;;-0.52;88.20
67015;BME280;1033;52.560;13.374;2023-12-04T09:01:54;101299.28;;;-0.48;88.19
67015;BME280;1033;52.560;13.374;2023-12-04T09:04:30;101293.03;;;-0.35;88.17
67015;BME280;1033;52.560;13.374;2023-12-04T09:07:02;101296.84;;;-0.17;86.86
67015;BME280;1033;52.560;13.374;2023-12-04T09:09:42;101300.50;;;-0.40;86.64
67015;BME280;1033;52.560;13.374;2023-12-04T09:12:16;101299.78;;;-0.31;86.89
67015;BME280;1033;52.560;13.374;2023-12-04T09:14:50;101297.97;;;-0.31;86.66
67015;BME280;1033;52.560;13.374;2023-12-04T09:17:26;101298.94;;;-0.32;86.71
67015;BME280;1033;52.560;13.374;2023-12-04T09:20:09;101297.84;;;-0.29;86.45
67015;BME280;1033;52.560;13.374;2023-12-04T09:22:45;101300.72;;;-0.44;86.78
67015;BME280;1033;52.560;13.374;2023-12-04T09:25:43;101298.69;;;-0.51;87.53
67015;BME280;1033;52.560;13.374;2023-12-04T09:28:20;101292.16;;;-0.36;87.34
67015;BME280;1033;52.560;13.374;2023-12-04T09:30:54;101297.13;;;-0.31;87.15
67015;BME280;1033;52.560;13.374;2023-12-04T09:33:36;101296.78;;;-0.49;86.48
67015;BME280;1033;52.560;13.374;2023-12-04T09:36:10;101295.19;;;-0.40;87.72
67015;BME280;1033;52.560;13.374;2023-12-04T09:38:46;101287.44;;;-0.21;86.03
67015;BME280;1033;52.560;13.374;2023-12-04T09:41:39;101289.84;;;-0.18;86.16
67015;BME280;1033;52.560;13.374;2023-12-04T09:44:29;101288.63;;;-0.14;85.75
67015;BME280;1033;52.560;13.374;2023-12-04T09:47:09;101285.00;;;-0.13;85.26
67015;BME280;1033;52.560;13.374;2023-12-04T09:49:43;101290.19;;;-0.12;85.75
67015;BME280;1033;52.560;13.374;2023-12-04T09:52:19;101286.44;;;-0.09;85.14
67015;BME280;1033;52.560;13.374;2023-12-04T09:54:56;101288.13;;;-0.19;86.15
67015;BME280;1033;52.560;13.374;2023-12-04T09:57:36;101279.25;;;-0.29;85.76
67015;BME280;1033;52.560;13.374;2023-12-04T10:00:14;101280.94;;;-0.51;87.06
67015;BME280;1033;52.560;13.374;2023-12-04T10:03:01;101270.91;;;-0.36;87.00
67015;BME280;1033;52.560;13.374;2023-12-04T10:05:39;101266.66;;;-0.38;86.40
67015;BME280;1033;52.560;13.374;2023-12-04T10:08:27;101274.81;;;-0.08;86.11
67015;BME280;1033;52.560;13.374;2023-12-04T10:11:05;101270.53;;;0.12;84.94
67015;BME280;1033;52.560;13.374;2023-12-04T10:13:48;101268.22;;;0.18;83.84
67015;BME280;1033;52.560;13.374;2023-12-04T10:16:34;101267.00;;;0.22;83.05
67015;BME280;1033;52.560;13.374;2023-12-04T10:19:19;101259.94;;;0.32;82.71
67015;BME280;1033;52.560;13.374;2023-12-04T10:21:58;101259.91;;;0.12;83.90
67015;BME280;1033;52.560;13.374;2023-12-04T10:24:38;101258.06;;;0.23;83.42
67015;BME280;1033;52.560;13.374;2023-12-04T10:27:17;101248.34;;;0.33;82.90
67015;BME280;1033;52.560;13.374;2023-12-04T10:29:56;101239.84;;;0.60;82.68
67015;BME280;1033;52.560;13.374;2023-12-04T10:32:33;101246.72;;;0.83;80.98
67015;BME280;1033;52.560;13.374;2023-12-04T10:35:16;101232.97;;;0.58;80.77
67015;BME280;1033;52.560;13.374;2023-12-04T10:37:56;101239.78;;;0.71;80.59
67015;BME280;1033;52.560;13.374;2023-12-04T10:40:39;101231.50;;;0.74;80.15
67015;BME280;1033;52.560;13.374;2023-12-04T10:43:17;101226.50;;;0.81;80.12
67015;BME280;1033;52.560;13.374;2023-12-04T10:45:57;101216.25;;;1.07;79.08
67015;BME280;1033;52.560;13.374;2023-12-04T10:48:43;101209.63;;;1.31;78.69
67015;BME280;1033;52.560;13.374;2023-12-04T10:51:21;101212.41;;;1.20;77.52
67015;BME280;1033;52.560;13.374;2023-12-04T10:53:57;101210.56;;;1.11;78.56
67015;BME280;1033;52.560;13.374;2023-12-04T10:56:37;101202.19;;;0.95;79.43
67015;BME280;1033;52.560;13.374;2023-12-04T10:59:38;101201.00;;;0.88;79.92
67015;BME280;1033;52.560;13.374;2023-12-04T11:02:25;101197.66;;;0.86;79.65
67015;BME280;1033;52.560;13.374;2023-12-04T11:05:12;101196.13;;;0.93;79.90
67015;BME280;1033;52.560;13.374;2023-12-04T11:08:06;101188.03;;;0.74;80.21
67015;BME280;1033;52.560;13.374;2023-12-04T11:10:50;101179.66;;;0.78;80.28
67015;BME280;1033;52.560;13.374;2023-12-04T11:13:42;101175.97;;;0.49;81.30
67015;BME280;1033;52.560;13.374;2023-12-04T11:16:27;101171.63;;;0.27;81.97
67015;BME280;1033;52.560;13.374;2023-12-04T11:19:23;101175.59;;;0.12;83.11
67015;BME280;1033;52.560;13.374;2023-12-04T11:22:19;101170.06;;;0.25;83.97
67015;BME280;1033;52.560;13.374;2023-12-04T11:25:00;101162.81;;;0.48;82.99
67015;BME280;1033;52.560;13.374;2023-12-04T11:27:40;101160.50;;;0.64;82.11
67015;BME280;1033;52.560;13.374;2023-12-04T11:30:24;101160.03;;;0.79;81.59
67015;BME280;1033;52.560;13.374;2023-12-04T11:33:07;101162.19;;;0.65;81.46
67015;BME280;1033;52.560;13.374;2023-12-04T11:36:07;101162.47;;;0.41;82.50
67015;BME280;1033;52.560;13.374;2023-12-04T11:38:48;101161.13;;;0.47;82.95
67015;BME280;1033;52.560;13.374;2023-12-04T11:41:31;101163.16;;;0.64;82.31
67015;BME280;1033;52.560;13.374;2023-12-04T11:44:25;101150.47;;;0.47;82.47
67015;BME280;1033;52.560;13.374;2023-12-04T11:47:06;101149.06;;;0.73;82.27
67015;BME280;1033;52.560;13.374;2023-12-04T11:49:48;101154.59;;;0.60;82.22
67015;BME280;1033;52.560;13.374;2023-12-04T11:52:42;101148.53;;;0.79;81.62
67015;BME280;1033;52.560;13.374;2023-12-04T11:55:30;101139.69;;;0.78;81.67
67015;BME280;1033;52.560;13.374;2023-12-04T11:58:19;101146.84;;;1.08;81.24
67015;BME280;1033;52.560;13.374;2023-12-04T12:01:01;101143.84;;;1.02;81.08
67015;BME280;1033;52.560;13.374;2023-12-04T12:03:38;101137.72;;;1.01;80.14
67015;BME280;1033;52.560;13.374;2023-12-04T12:06:15;101139.66;;;0.99;80.32
67015;BME280;1033;52.560;13.374;2023-12-04T12:08:59;101135.59;;;1.05;79.86
67015;BME280;1033;52.560;13.374;2023-12-04T12:11:44;101130.72;;;1.10;80.48
67015;BME280;1033;52.560;13.374;2023-12-04T12:14:22;101131.13;;;1.05;79.64
67015;BME280;1033;52.560;13.374;2023-12-04T12:17:04;101126.75;;;1.04;79.94
67015;BME280;1033;52.560;13.374;2023-12-04T12:19:44;101114.69;;;1.00;80.98
67015;BME280;1033;52.560;13.374;2023-12-04T12:22:26;101113.72;;;0.71;81.44
67015;BME280;1033;52.560;13.374;2023-12-04T12:25:10;101107.59;;;0.50;82.50
67015;BME280;1033;52.560;13.374;2023-12-04T12:28:03;101109.81;;;0.75;81.82
67015;BME280;1033;52.560;13.374;2023-12-04T12:30:42;101100.56;;;0.79;82.26
67015;BME280;1033;52.560;13.374;2023-12-04T12:33:24;101099.44;;;0.72;82.06
67015;BME280;1033;52.560;13.374;2023-12-04T12:36:07;101093.47;;;0.59;82.95
67015;BME280;1033;52.560;13.374;2023-12-04T12:38:47;101092.94;;;0.65;83.52
67015;BME280;1033;52.560;13.374;2023-12-04T12:41:31;101097.06;;;0.78;83.59
67015;BME280;1033;52.560;13.374;2023-12-04T12:44:08;101094.44;;;0.88;83.37
67015;BME280;1033;52.560;13.374;2023-12-04T12:46:50;101091.69;;;0.99;81.75
67015;BME280;1033;52.560;13.374;2023-12-04T12:49:29;101091.78;;;0.88;82.91
67015;BME280;1033;52.560;13.374;2023-12-04T12:52:11;101077.28;;;0.71;83.39
67015;BME280;1033;52.560;13.374;2023-12-04T12:54:50;101090.72;;;0.70;84.14
67015;BME280;1033;52.560;13.374;2023-12-04T12:57:38;101078.19;;;0.91;83.48
67015;BME280;1033;52.560;13.374;2023-12-04T13:00:16;101069.66;;;1.07;83.19
67015;BME280;1033;52.560;13.374;2023-12-04T13:02:58;101078.78;;;1.04;83.19
67015;BME280;1033;52.560;13.374;2023-12-04T13:05:33;101076.53;;;1.00;82.80
67015;BME280;1033;52.560;13.374;2023-12-04T13:08:21;101073.69;;;0.82;83.30
67015;BME280;1033;52.560;13.374;2023-12-04T13:10:58;101079.28;;;0.79;83.61
67015;BME280;1033;52.560;13.374;2023-12-04T13:13:43;101076.50;;;0.90;84.27
67015;BME280;1033;52.560;13.374;2023-12-04T13:16:23;101075.47;;;0.72;84.17
67015;BME280;1033;52.560;13.374;2023-12-04T13:19:02;101064.69;;;0.83;84.48
67015;BME280;1033;52.560;13.374;2023-12-04T13:21:40;101057.72;;;0.92;84.23
67015;BME280;1033;52.560;13.374;2023-12-04T13:24:24;101058.41;;;0.84;85.35
67015;BME280;1033;52.560;13.374;2023-12-04T13:27:03;101049.81;;;0.71;85.02
67015;BME280;1033;52.560;13.374;2023-12-04T13:29:42;101051.59;;;0.61;85.72
67015;BME280;1033;52.560;13.374;2023-12-04T13:32:27;101050.31;;;0.55;86.06
67015;BME280;1033;52.560;13.374;2023-12-04T13:35:07;101044.94;;;0.46;86.43
67015;BME280;1033;52.560;13.374;2023-12-04T13:37:47;101037.91;;;0.44;86.35
67015;BME280;1033;52.560;13.374;2023-12-04T13:40:26;101037.31;;;0.31;86.73
67015;BME280;1033;52.560;13.374;2023-12-04T13:43:08;101028.34;;;0.32;87.35
67015;BME280;1033;52.560;13.374;2023-12-04T13:46:13;101025.13;;;0.29;87.28
67015;BME280;1033;52.560;13.374;2023-12-04T13:48:52;101028.16;;;0.24;87.69
67015;BME280;1033;52.560;13.374;2023-12-04T13:51:33;101010.88;;;0.09;88.18
67015;BME280;1033;52.560;13.374;2023-12-04T13:54:17;101015.03;;;0.02;88.59
67015;BME280;1033;52.560;13.374;2023-12-04T13:57:06;101002.97;;;-0.02;89.69
67015;BME280;1033;52.560;13.374;2023-12-04T13:59:55;100997.13;;;0.04;89.40
67015;BME280;1033;52.560;13.374;2023-12-04T14:02:43;100998.72;;;-0.05;89.54
67015;BME280;1033;52.560;13.374;2023-12-04T14:05:25;100989.09;;;-0.06;89.56
67015;BME280;1033;52.560;13.374;2023-12-04T14:08:03;100987.84;;;-0.02;89.57
67015;BME280;1033;52.560;13.374;2023-12-04T14:10:42;100984.41;;;-0.13;90.33